Time;durP1;ratioP1;P1;durP2;ratioP2;P2;SDS_P1;SDS_P2;PMS_P1;PMS_P2;Temp;Humidity;BMP_temperature;BMP_pressure;BME280_temperature;BME280_humidity;BME280_pressure;Samples;Min_cycle;Max_cycle;Signal;HPM_P1;HPM_P2
2023/10/02 00:01:11;;;;;;;13.70;8.00;;;;;;;19.13;65.19;101990.94;5102031;27;20080;-71
2023/10/02 00:03:40;;;;;;;16.95;8.93;;;;;;;19.11;65.03;101982.19;5081133;27;20078;-71
2023/10/02 00:06:16;;;;;;;15.95;8.68;;;;;;;19.10;64.99;101987.88;5072356;27;20045;-71
2023/10/02 00:08:49;;;;;;;15.13;8.27;;;;;;;19.09;65.04;101989.78;5057685;27;20109;-71
2023/10/02 00:11:40;;;;;;;16.90;9.43;;;;;;;19.07;65.08;101989.22;5068374;27;20045;-71
2023/10/02 00:14:22;;;;;;;15.75;8.60;;;;;;;19.03;65.16;101979.91;5067563;27;20056;-71
2023/10/02 00:17:03;;;;;;;17.20;8.70;;;;;;;19.00;65.09;101974.16;5076593;27;20054;-71
2023/10/02 00:19:36;;;;;;;16.70;8.95;;;;;;;19.02;65.10;101985.63;5081259;27;20049;-71
2023/10/02 00:22:09;;;;;;;15.25;7.90;;;;;;;19.04;65.03;101983.47;5065912;27;20134;-71
2023/10/02 00:24:38;;;;;;;15.32;8.85;;;;;;;19.04;64.90;101978.03;5066049;27;20049;-71
2023/10/02 00:27:08;;;;;;;14.93;8.27;;;;;;;19.02;65.10;101980.19;5060361;27;20053;-71
2023/10/02 00:29:50;;;;;;;17.98;8.88;;;;;;;19.01;64.83;101978.53;5062004;27;20045;-71
2023/10/02 00:32:19;;;;;;;14.75;8.05;;;;;;;18.94;65.19;101973.25;5069102;27;20045;-71
2023/10/02 00:34:48;;;;;;;16.00;8.85;;;;;;;19.00;64.88;101974.16;5064442;27;20037;-71
2023/10/02 00:37:17;;;;;;;15.48;8.00;;;;;;;19.00;64.89;101976.88;5073174;27;20068;-71
2023/10/02 00:39:47;;;;;;;14.70;8.05;;;;;;;18.97;64.88;101970.03;5090599;27;20134;-70
2023/10/02 00:42:25;;;;;;;15.00;8.75;;;;;;;18.96;64.85;101973.81;5073011;27;20057;-71
2023/10/02 00:44:57;;;;;;;19.02;8.25;;;;;;;18.96;65.35;101973.00;5065968;27;20045;-71
2023/10/02 00:47:42;;;;;;;14.93;8.43;;;;;;;18.94;65.00;101972.44;5065635;27;20049;-71
2023/10/02 00:50:11;;;;;;;19.85;8.90;;;;;;;18.89;64.97;101965.00;5090891;27;20044;-71
2023/10/02 00:52:43;;;;;;;16.33;9.23;;;;;;;18.94;64.90;101966.97;5075043;27;20048;-71
2023/10/02 00:55:12;;;;;;;15.35;8.52;;;;;;;18.94;64.93;101972.44;5087468;27;20043;-71
2023/10/02 00:57:41;;;;;;;15.75;8.23;;;;;;;18.92;65.07;101972.69;5081986;27;20059;-71
2023/10/02 01:00:21;;;;;;;16.42;8.80;;;;;;;18.91;65.10;101970.19;5089165;27;20071;-71
2023/10/02 01:02:51;;;;;;;14.35;7.75;;;;;;;18.85;64.79;101961.94;5063451;27;20056;-70
2023/10/02 01:05:22;;;;;;;16.40;7.70;;;;;;;18.90;65.19;101969.38;5093250;27;20069;-71
2023/10/02 01:07:55;;;;;;;18.80;9.07;;;;;;;18.88;65.00;101968.81;5074146;27;20123;-71
2023/10/02 01:10:29;;;;;;;15.95;8.20;;;;;;;18.88;65.09;101965.25;5061601;27;20061;-71
2023/10/02 01:13:02;;;;;;;14.73;8.15;;;;;;;18.86;64.96;101965.50;5086323;27;20056;-71
2023/10/02 01:15:30;;;;;;;13.98;7.63;;;;;;;18.85;65.21;101961.13;5095101;27;20041;-71
2023/10/02 01:18:22;;;;;;;13.65;8.05;;;;;;;18.83;65.07;101961.38;5071258;27;20063;-71
2023/10/02 01:20:54;;;;;;;17.00;8.30;;;;;;;18.82;65.24;101958.91;5083347;27;20048;-71
2023/10/02 01:23:25;;;;;;;17.05;7.82;;;;;;;18.80;65.03;101959.16;5072450;27;20129;-71
2023/10/02 01:26:00;;;;;;;15.68;8.38;;;;;;;18.78;65.09;101958.56;5101011;27;20052;-71
2023/10/02 01:28:32;;;;;;;20.20;9.07;;;;;;;18.77;65.25;101961.53;5076866;27;20051;-71
2023/10/02 01:31:31;;;;;;;18.10;8.00;;;;;;;18.75;65.27;101959.06;5065345;27;20061;-71
2023/10/02 01:33:48;;;;;;;17.15;8.10;;;;;;;18.75;65.20;101961.78;5067662;27;20061;-71
2023/10/02 01:36:19;;;;;;;15.98;8.98;;;;;;;18.74;65.18;101957.44;5082549;27;20046;-71
2023/10/02 01:38:47;;;;;;;14.77;8.25;;;;;;;18.71;65.07;101959.81;5072097;27;20053;-71
2023/10/02 01:41:16;;;;;;;15.23;7.65;;;;;;;18.66;65.43;101949.69;5077931;27;20116;-71
2023/10/02 01:43:45;;;;;;;17.80;9.20;;;;;;;18.69;65.30;101956.53;5087153;27;20049;-71
2023/10/02 01:46:17;;;;;;;15.68;8.52;;;;;;;18.68;65.29;101952.16;5077430;27;20172;-71
2023/10/02 01:48:48;;;;;;;14.90;8.07;;;;;;;18.66;65.26;101955.13;5063568;27;20491;-71
2023/10/02 01:51:25;;;;;;;16.90;8.40;;;;;;;18.65;65.47;101950.75;5059883;27;20303;-71
2023/10/02 01:53:56;;;;;;;17.73;8.25;;;;;;;18.63;65.05;101944.72;5083931;27;20075;-71
2023/10/02 01:56:27;;;;;;;17.80;9.10;;;;;;;18.53;65.47;101930.91;5087415;27;20033;-71
2023/10/02 01:59:08;;;;;;;23.58;9.70;;;;;;;18.63;65.43;101954.78;5064936;27;20049;-71
2023/10/02 02:01:46;;;;;;;14.63;7.72;;;;;;;18.61;65.06;101952.31;5066877;27;20084;-71
2023/10/02 02:04:15;;;;;;;16.90;8.02;;;;;;;18.58;65.30;101952.78;5075440;27;20044;-71
2023/10/02 02:06:52;;;;;;;15.88;7.90;;;;;;;18.58;65.43;101947.34;5064170;27;20125;-71
2023/10/02 02:09:23;;;;;;;14.70;7.93;;;;;;;18.59;65.30;101950.88;5074454;27;20045;-71
2023/10/02 02:14:50;;;;;;;15.63;8.25;;;;;;;18.50;65.25;101929.53;5066225;27;20107;-71
2023/10/02 02:17:21;;;;;;;15.23;7.60;;;;;;;18.54;65.24;101940.75;5060220;27;20041;-71
2023/10/02 02:19:55;;;;;;;12.18;7.25;;;;;;;18.52;65.24;101943.72;5092265;27;20589;-71
2023/10/02 02:22:25;;;;;;;15.82;8.13;;;;;;;18.52;65.26;101943.72;5071076;27;20080;-71
2023/10/02 02:24:54;;;;;;;16.42;8.32;;;;;;;18.52;65.35;101946.44;5078394;27;20045;-72
2023/10/02 02:27:23;;;;;;;15.52;7.72;;;;;;;18.53;65.33;101942.63;5065963;27;20504;-71
2023/10/02 02:29:54;;;;;;;15.52;7.75;;;;;;;18.52;65.43;101948.31;5067309;27;20053;-71
2023/10/02 02:32:36;;;;;;;15.15;8.45;;;;;;;18.51;65.35;101947.50;5053621;27;20041;-71
2023/10/02 02:35:06;;;;;;;18.55;8.73;;;;;;;18.51;65.24;101943.97;5052259;27;20048;-70
2023/10/02 02:37:34;;;;;;;16.40;8.05;;;;;;;18.50;65.25;101942.31;5055840;27;20052;-71
2023/10/02 02:42:46;;;;;;;14.68;7.45;;;;;;;18.49;65.27;101944.19;5061314;27;20049;-71
2023/10/02 02:45:24;;;;;;;15.32;8.45;;;;;;;18.48;65.16;101939.84;5062876;27;20049;-71
2023/10/02 02:47:54;;;;;;;15.65;8.05;;;;;;;18.48;65.31;101944.44;5062547;27;20141;-70
2023/10/02 02:50:27;;;;;;;19.50;8.75;;;;;;;18.46;65.27;101939.25;5059388;27;20124;-71
2023/10/02 02:53:16;;;;;;;15.23;8.30;;;;;;;18.46;65.41;101933.81;5060939;27;20055;-71
2023/10/02 02:55:44;;;;;;;15.60;7.93;;;;;;;18.42;65.33;101920.94;5060379;27;20065;-71
2023/10/02 02:58:14;;;;;;;18.40;8.68;;;;;;;18.44;65.31;101924.25;5060992;27;20317;-71
2023/10/02 03:00:42;;;;;;;14.63;7.30;;;;;;;18.43;65.30;101928.03;5060685;27;20057;-71
2023/10/02 03:03:32;;;;;;;15.75;7.57;;;;;;;18.43;65.45;101933.47;5062875;27;20459;-71
2023/10/02 03:06:00;;;;;;;15.30;8.35;;;;;;;18.41;65.38;101924.75;5063917;27;20128;-71
2023/10/02 03:08:37;;;;;;;17.55;8.65;;;;;;;18.41;65.39;101928.28;5064051;27;20826;-71
2023/10/02 03:11:07;;;;;;;14.60;7.22;;;;;;;18.38;65.39;101922.50;5076013;27;20048;-71
2023/10/02 03:13:39;;;;;;;18.02;8.43;;;;;;;18.39;65.21;101918.72;5077021;27;20120;-71
2023/10/02 03:16:16;;;;;;;16.05;8.15;;;;;;;18.33;65.32;101915.09;5066274;27;20045;-71
2023/10/02 03:18:44;;;;;;;18.70;8.43;;;;;;;18.35;65.48;101921.09;5065710;27;20049;-71
2023/10/02 03:21:21;;;;;;;14.27;8.07;;;;;;;18.34;65.30;101913.19;5081625;27;20095;-71
2023/10/02 03:23:53;;;;;;;16.08;8.52;;;;;;;18.33;65.59;101914.25;5072642;27;20053;-71
2023/10/02 03:26:37;;;;;;;18.52;9.13;;;;;;;18.31;65.42;101910.97;5069417;27;20053;-72
2023/10/02 03:29:11;;;;;;;16.02;8.10;;;;;;;18.28;65.54;101901.41;5097664;27;20116;-71
2023/10/02 03:31:48;;;;;;;13.95;7.78;;;;;;;18.29;65.59;101907.66;5079690;27;20037;-71
2023/10/02 03:34:28;;;;;;;14.88;7.90;;;;;;;18.28;65.49;101909.56;5063551;27;20049;-71
2023/10/02 03:37:00;;;;;;;16.10;9.20;;;;;;;18.27;65.55;101905.19;5065480;27;20044;-71
2023/10/02 03:42:21;;;;;;;16.63;8.27;;;;;;;18.25;65.42;101901.88;5116259;27;20043;-71
2023/10/02 03:44:54;;;;;;;13.68;7.18;;;;;;;18.24;65.57;101905.69;5097713;27;20079;-71
2023/10/02 03:47:22;;;;;;;17.00;9.07;;;;;;;18.23;65.47;101909.47;5061475;27;20049;-71
2023/10/02 03:49:50;;;;;;;16.77;9.30;;;;;;;18.22;65.48;101902.38;5074731;27;20105;-71
2023/10/02 03:52:19;;;;;;;16.80;8.77;;;;;;;18.09;65.37;101879.03;5087852;27;20116;-71
2023/10/02 03:54:49;;;;;;;19.25;8.90;;;;;;;18.20;65.48;101905.34;5079496;27;20534;-71
2023/10/02 04:00:12;;;;;;;15.75;8.70;;;;;;;18.17;65.57;101902.31;5086619;27;20160;-71
2023/10/02 04:02:43;;;;;;;13.88;8.02;;;;;;;18.17;65.54;101908.56;5052093;27;20108;-70
2023/10/02 04:05:12;;;;;;;16.70;8.50;;;;;;;18.16;65.57;101908.81;5105070;27;20040;-71
2023/10/02 04:07:47;;;;;;;14.43;8.25;;;;;;;18.15;65.65;101910.72;5070510;27;20045;-71
2023/10/02 04:10:19;;;;;;;17.67;8.23;;;;;;;18.15;65.66;101904.44;5093357;27;20099;-71
2023/10/02 04:12:53;;;;;;;16.60;8.35;;;;;;;18.13;65.41;101903.88;5139268;28;20082;-71
2023/10/02 04:15:22;;;;;;;14.35;7.60;;;;;;;18.11;65.48;101904.13;5141036;28;20049;-70
2023/10/02 04:17:49;;;;;;;15.88;8.82;;;;;;;18.11;65.56;101903.28;5138157;27;20500;-69
2023/10/02 04:20:27;;;;;;;18.42;9.02;;;;;;;18.11;65.45;101903.28;5145551;27;20084;-71
2023/10/02 04:23:18;;;;;;;15.77;8.07;;;;;;;18.09;65.47;101903.53;5146649;27;20500;-71
2023/10/02 04:25:44;;;;;;;15.27;7.40;;;;;;;18.09;65.59;101905.44;5147172;27;20047;-71
2023/10/02 04:28:12;;;;;;;15.25;8.98;;;;;;;18.09;65.57;101900.00;5147398;27;20105;-71
2023/10/02 04:30:45;;;;;;;17.38;8.60;;;;;;;18.08;65.45;101898.34;5148151;27;20073;-71
2023/10/02 04:33:14;;;;;;;16.83;8.88;;;;;;;18.07;65.53;101899.41;5145790;27;20057;-71
2023/10/02 04:35:44;;;;;;;17.45;9.10;;;;;;;18.06;65.48;101904.03;5141288;27;20070;-71
2023/10/02 04:38:14;;;;;;;15.98;9.35;;;;;;;18.04;65.73;101898.00;5147269;27;20112;-71
2023/10/02 04:40:51;;;;;;;15.40;8.05;;;;;;;18.05;65.39;101904.28;5148260;27;20074;-71
2023/10/02 04:43:23;;;;;;;15.07;8.60;;;;;;;18.02;65.51;101899.31;5147013;27;20181;-71
2023/10/02 04:46:01;;;;;;;17.63;7.90;;;;;;;18.04;65.53;101898.00;5147022;27;20043;-71
2023/10/02 04:48:39;;;;;;;16.33;8.73;;;;;;;18.03;65.47;101899.06;5142598;27;20088;-71
2023/10/02 04:51:09;;;;;;;16.20;8.50;;;;;;;18.00;65.54;101896.03;5142619;27;20289;-71
2023/10/02 04:53:36;;;;;;;17.13;8.30;;;;;;;18.02;65.43;101894.72;5125134;27;20045;-71
2023/10/02 04:56:24;;;;;;;17.00;8.88;;;;;;;18.01;65.49;101893.06;5119618;27;20085;-71
2023/10/02 04:58:57;;;;;;;14.90;7.95;;;;;;;17.99;65.53;101894.38;5145625;27;20110;-71
2023/10/02 05:01:34;;;;;;;18.27;8.63;;;;;;;17.99;65.30;101894.38;5147150;27;20478;-72
2023/10/02 05:04:03;;;;;;;16.13;8.18;;;;;;;17.91;65.33;101882.00;5142907;27;20075;-71
2023/10/02 05:09:25;;;;;;;19.80;8.55;;;;;;;17.97;65.54;101888.34;5142677;27;20047;-70
2023/10/02 05:11:55;;;;;;;18.20;9.20;;;;;;;17.95;65.43;101888.59;5083036;27;20083;-72
2023/10/02 05:14:28;;;;;;;16.38;8.52;;;;;;;17.95;65.46;101885.06;5115873;27;20047;-72
2023/10/02 05:17:38;;;;;;;17.08;9.02;;;;;;;17.93;65.44;101893.47;5074930;27;20107;-75
2023/10/02 05:20:13;;;;;;;16.30;7.90;;;;;;;17.87;65.56;101887.09;5100643;27;20046;-72
2023/10/02 05:22:42;;;;;;;18.58;8.93;;;;;;;17.92;65.51;101897.25;5078238;27;20051;-73
2023/10/02 05:25:10;;;;;;;16.48;8.10;;;;;;;17.85;65.56;101886.53;5087815;27;20041;-77
2023/10/02 05:27:39;;;;;;;14.60;8.05;;;;;;;17.84;65.68;101897.66;5084228;27;20559;-76
2023/10/02 05:30:13;;;;;;;18.95;8.60;;;;;;;17.81;65.42;101893.53;5083369;27;20045;-75
2023/10/02 05:32:43;;;;;;;18.63;9.35;;;;;;;17.86;65.52;101901.78;5063600;27;20055;-78
2023/10/02 05:35:23;;;;;;;16.98;8.30;;;;;;;17.85;65.56;101900.13;5090023;27;21314;-77
2023/10/02 05:37:54;;;;;;;15.70;7.82;;;;;;;17.85;65.53;101899.28;5078107;27;20101;-73
2023/10/02 05:40:37;;;;;;;15.43;8.15;;;;;;;17.72;65.48;101875.94;4714138;27;10000480;-73
2023/10/02 05:43:17;;;;;;;18.90;8.55;;;;;;;17.84;65.47;101905.81;5063731;27;20112;-71
2023/10/02 05:45:50;;;;;;;16.70;8.77;;;;;;;17.83;65.38;101906.88;5095691;27;20107;-70
2023/10/02 05:48:28;;;;;;;17.13;8.85;;;;;;;17.80;65.54;101902.75;5062617;27;20080;-68
2023/10/02 05:50:59;;;;;;;18.52;7.88;;;;;;;17.80;65.27;101900.03;5082364;27;20070;-67
2023/10/02 05:53:34;;;;;;;16.95;8.80;;;;;;;17.75;65.56;101896.38;5057190;27;20542;-69
2023/10/02 05:56:12;;;;;;;15.57;8.30;;;;;;;17.76;65.54;101896.16;5080904;27;20568;-67
2023/10/02 05:58:42;;;;;;;21.13;9.77;;;;;;;17.74;65.77;101901.00;5056683;27;20091;-66
2023/10/02 06:01:23;;;;;;;18.10;9.55;;;;;;;17.73;66.17;101912.13;5076702;27;20468;-68
2023/10/02 06:03:57;;;;;;;21.30;9.25;;;;;;;17.69;66.44;101919.13;5057142;28;20473;-66
2023/10/02 06:06:27;;;;;;;20.40;9.38;;;;;;;17.68;66.73;101922.91;5054716;28;20048;-67
2023/10/02 06:09:00;;;;;;;23.77;9.65;;;;;;;17.69;66.42;101930.00;5069600;27;20053;-67
2023/10/02 06:11:33;;;;;;;24.45;9.35;;;;;;;17.69;66.13;101922.66;5097580;27;20629;-69
2023/10/02 06:16:47;;;;;;;20.50;9.48;;;;;;;17.64;66.74;101918.97;5065957;27;20073;-69
2023/10/02 06:19:17;;;;;;;19.75;9.73;;;;;;;17.67;66.57;101916.63;5056201;27;20493;-69
2023/10/02 06:21:47;;;;;;;16.88;8.75;;;;;;;17.65;66.35;101916.03;5048625;28;20049;-69
2023/10/02 06:24:15;;;;;;;22.95;9.57;;;;;;;17.67;66.38;101915.81;5051929;27;20089;-69
2023/10/02 06:26:57;;;;;;;20.33;9.90;;;;;;;17.69;66.28;101928.09;5063041;27;20056;-69
2023/10/02 06:29:28;;;;;;;20.05;9.68;;;;;;;17.65;66.44;101921.47;5056478;27;20054;-69
2023/10/02 06:32:03;;;;;;;18.25;9.57;;;;;;;17.63;66.08;101923.59;5058689;27;20065;-69
2023/10/02 06:34:39;;;;;;;20.23;9.57;;;;;;;17.69;66.30;101928.09;5104859;27;20053;-70
2023/10/02 06:37:11;;;;;;;18.48;9.30;;;;;;;17.66;66.20;101920.44;5070869;27;20562;-69
2023/10/02 06:39:41;;;;;;;20.73;9.93;;;;;;;17.71;66.01;101928.69;5074186;27;20060;-70
2023/10/02 06:42:10;;;;;;;20.85;9.48;;;;;;;17.71;66.32;101930.56;5069508;27;20051;-69
2023/10/02 06:44:42;;;;;;;19.40;8.63;;;;;;;17.70;65.89;101929.75;5060694;28;20049;-70
2023/10/02 06:47:14;;;;;;;23.95;9.50;;;;;;;17.66;65.76;101920.44;5060271;28;20041;-69
2023/10/02 06:49:44;;;;;;;19.80;9.10;;;;;;;17.71;65.81;101922.41;5062611;27;20060;-69
2023/10/02 06:52:15;;;;;;;20.75;8.27;;;;;;;17.70;65.89;101926.19;5063701;27;20443;-69
2023/10/02 06:54:45;;;;;;;18.77;9.20;;;;;;;17.71;65.86;101925.13;5104209;27;20082;-68
2023/10/02 06:57:14;;;;;;;21.08;9.45;;;;;;;17.71;65.79;101925.13;5125725;27;20064;-69
2023/10/02 06:59:51;;;;;;;20.73;8.48;;;;;;;17.70;65.83;101923.47;5082847;27;20045;-68
2023/10/02 07:02:24;;;;;;;16.60;8.35;;;;;;;17.69;65.86;101930.00;5093482;27;20045;-68
2023/10/02 07:04:55;;;;;;;16.73;8.50;;;;;;;17.71;65.85;101925.97;5061100;27;20092;-68
2023/10/02 07:07:25;;;;;;;16.88;9.73;;;;;;;17.72;65.61;101932.22;5072436;27;20052;-68
2023/10/02 07:09:55;;;;;;;16.75;8.35;;;;;;;17.71;65.67;101927.84;5087314;27;20188;-68
2023/10/02 07:12:27;;;;;;;17.77;8.43;;;;;;;17.71;65.63;101936.84;5142029;27;20038;-68
2023/10/02 07:15:10;;;;;;;19.67;9.68;;;;;;;17.67;66.00;101930.22;5142910;27;20055;-68
2023/10/02 07:17:47;;;;;;;14.52;7.72;;;;;;;17.72;65.90;101926.78;5143695;27;20074;-67
2023/10/02 07:20:20;;;;;;;17.95;9.07;;;;;;;17.69;65.67;101917.22;5142401;27;20094;-68
2023/10/02 07:22:49;;;;;;;19.17;8.77;;;;;;;17.72;65.81;101916.72;5140441;27;20043;-68
2023/10/02 07:25:20;;;;;;;21.58;9.23;;;;;;;17.72;65.71;101921.34;5142747;27;20043;-68
2023/10/02 07:27:49;;;;;;;17.02;8.63;;;;;;;17.72;65.88;101916.72;5141171;27;20105;-68
2023/10/02 07:30:25;;;;;;;17.48;9.43;;;;;;;17.72;65.76;101926.78;5143387;27;20043;-69
2023/10/02 07:33:02;;;;;;;17.60;8.55;;;;;;;17.73;65.89;101931.16;5142240;27;20127;-68
2023/10/02 07:35:34;;;;;;;18.13;8.90;;;;;;;17.73;65.87;101926.53;5143277;27;20055;-68
2023/10/02 07:38:02;;;;;;;17.90;9.70;;;;;;;17.74;65.97;101928.19;5143785;27;20150;-68
2023/10/02 07:43:14;;;;;;;15.93;8.77;;;;;;;17.73;65.71;101914.84;5135418;27;20043;-68
2023/10/02 07:45:42;;;;;;;18.77;10.05;;;;;;;17.72;65.91;101922.16;5142851;27;20561;-68
2023/10/02 07:48:11;;;;;;;15.40;7.97;;;;;;;17.77;65.75;101921.44;5142578;27;20102;-68
2023/10/02 07:50:43;;;;;;;19.77;8.60;;;;;;;17.77;65.80;101924.16;5141463;27;20074;-68
2023/10/02 07:53:13;;;;;;;19.05;9.27;;;;;;;17.67;65.72;101902.22;5136525;27;20043;-68
2023/10/02 07:55:46;;;;;;;17.15;8.48;;;;;;;17.79;65.82;101919.31;5140363;27;20364;-68
2023/10/02 07:58:17;;;;;;;18.33;8.05;;;;;;;17.74;65.66;101922.75;5142914;28;20113;-68
2023/10/02 08:00:49;;;;;;;18.17;9.57;;;;;;;17.79;65.80;101924.75;5143419;28;20047;-68
2023/10/02 08:03:31;;;;;;;18.17;8.88;;;;;;;17.79;66.01;101916.59;5141826;28;20510;-68
2023/10/02 08:06:20;;;;;;;18.48;9.57;;;;;;;17.79;65.86;101922.84;5141688;28;20047;-69
2023/10/02 08:09:24;;;;;;;16.63;8.15;;;;;;;17.79;66.00;101919.31;5144380;28;20055;-69
2023/10/02 08:11:39;;;;;;;15.77;9.02;;;;;;;17.74;65.78;101908.34;4733327;27;10000224;-69
2023/10/02 08:14:15;;;;;;;18.10;9.23;;;;;;;17.82;66.10;101926.97;5073184;27;20041;-69
2023/10/02 08:19:25;;;;;;;18.05;8.30;;;;;;;17.82;65.96;101919.66;5070434;27;20045;-69
2023/10/02 08:21:55;;;;;;;14.93;8.75;;;;;;;17.84;66.12;101922.13;5068820;27;20064;-68
2023/10/02 08:24:22;;;;;;;18.73;8.18;;;;;;;17.85;65.90;101926.50;5056601;28;20127;-69
2023/10/02 08:26:56;;;;;;;18.88;8.93;;;;;;;17.81;65.97;101928.88;5108979;27;20089;-68
2023/10/02 08:29:26;;;;;;;16.38;9.10;;;;;;;17.87;65.87;101930.63;5072662;27;20069;-69
2023/10/02 08:31:54;;;;;;;18.65;8.98;;;;;;;17.88;65.86;101940.44;5090620;27;20041;-70
2023/10/02 08:34:24;;;;;;;16.02;8.38;;;;;;;17.90;66.09;101932.03;5097294;27;20074;-70
2023/10/02 08:37:07;;;;;;;15.73;8.55;;;;;;;17.91;66.16;101928.22;5096224;27;20143;-70
2023/10/02 08:39:36;;;;;;;19.75;9.07;;;;;;;17.92;66.14;101935.31;5147918;27;20047;-70
2023/10/02 08:42:08;;;;;;;17.48;8.50;;;;;;;17.94;66.32;101932.34;5107884;27;20053;-69
2023/10/02 08:44:38;;;;;;;22.40;8.95;;;;;;;17.95;66.23;101939.44;5068386;27;20049;-71
2023/10/02 08:47:07;;;;;;;18.92;9.38;;;;;;;17.96;66.44;101938.38;5116436;27;20069;-70
2023/10/02 08:49:36;;;;;;;18.08;9.93;;;;;;;17.97;66.54;101931.88;5077716;27;20188;-71
2023/10/02 08:52:10;;;;;;;17.02;9.32;;;;;;;17.97;66.53;101927.25;5108650;27;20049;-70
2023/10/02 08:54:40;;;;;;;18.63;9.27;;;;;;;17.99;66.73;101925.13;5089958;27;20053;-70
2023/10/02 08:57:09;;;;;;;21.20;9.65;;;;;;;18.00;66.87;101926.78;5086930;27;20039;-70
2023/10/02 08:59:40;;;;;;;20.15;10.32;;;;;;;18.01;66.80;101914.81;5124873;27;20047;-70
2023/10/02 09:02:13;;;;;;;19.88;8.57;;;;;;;18.03;67.00;101912.69;5128542;27;20084;-69
2023/10/02 09:04:51;;;;;;;19.65;8.68;;;;;;;17.97;66.93;101894.63;5084805;27;20531;-72
2023/10/02 09:07:44;;;;;;;20.48;9.48;;;;;;;18.07;66.84;101902.13;5075426;27;20048;-70
2023/10/02 09:10:24;;;;;;;17.10;8.60;;;;;;;18.09;66.92;101900.81;5108063;27;20110;-72
2023/10/02 09:13:11;;;;;;;20.20;9.40;;;;;;;18.10;67.18;101905.19;5069399;27;20049;-69
2023/10/02 09:15:44;;;;;;;18.88;9.95;;;;;;;18.11;67.13;101912.28;5098872;27;20042;-70
2023/10/02 09:18:33;;;;;;;19.00;9.95;;;;;;;18.13;67.33;101912.03;5090518;27;20132;-72
2023/10/02 09:21:13;;;;;;;18.92;9.32;;;;;;;18.15;67.26;101915.31;5070971;27;20111;-69
2023/10/02 09:23:51;;;;;;;16.50;8.77;;;;;;;18.10;67.30;101907.06;5073927;27;20045;-71
2023/10/02 09:26:24;;;;;;;15.98;8.45;;;;;;;18.18;67.51;101917.56;5067860;27;20045;-73
2023/10/02 09:29:06;;;;;;;19.42;9.00;;;;;;;18.05;67.37;101885.22;5089573;27;20053;-76
2023/10/02 09:31:35;;;;;;;19.85;9.52;;;;;;;18.21;67.56;101906.19;5083794;27;20138;-76
2023/10/02 09:34:11;;;;;;;17.60;9.13;;;;;;;18.20;67.52;101901.81;5063352;27;20076;-74
2023/10/02 09:37:11;;;;;;;22.02;9.80;;;;;;;18.23;67.64;101906.75;5071472;27;20561;-76
2023/10/02 09:40:03;;;;;;;17.80;9.18;;;;;;;18.25;67.82;101912.78;5082583;27;20041;-76
2023/10/02 09:42:35;;;;;;;18.83;8.45;;;;;;;18.27;67.72;101907.91;5067272;27;20140;-76
2023/10/02 09:45:08;;;;;;;18.23;9.50;;;;;;;18.29;68.03;101910.38;5087652;27;20494;-68
2023/10/02 09:47:37;;;;;;;17.65;9.13;;;;;;;18.29;68.11;101905.78;5064484;27;20137;-68
2023/10/02 09:50:29;;;;;;;17.17;8.63;;;;;;;18.30;68.21;101912.03;5085297;27;20131;-69
2023/10/02 09:53:08;;;;;;;16.85;8.57;;;;;;;18.31;68.09;101909.06;5080535;27;20049;-69
2023/10/02 09:55:58;;;;;;;20.25;9.98;;;;;;;18.33;68.37;101903.38;5079255;27;20122;-69
2023/10/02 09:58:33;;;;;;;17.85;7.93;;;;;;;18.34;68.05;101907.75;5092677;27;20053;-69
2023/10/02 10:01:33;;;;;;;20.05;9.32;;;;;;;18.34;68.23;101897.69;5079283;27;20117;-74
2023/10/02 10:04:08;;;;;;;18.67;9.27;;;;;;;18.39;68.62;101902.38;5069057;27;20053;-69
2023/10/02 10:06:49;;;;;;;16.63;8.70;;;;;;;18.44;68.18;101899.75;5060831;28;20302;-68
2023/10/02 10:12:32;;;;;;;17.20;8.30;;;;;;;18.52;67.95;101897.44;5058226;28;20057;-69
2023/10/02 10:15:23;;;;;;;18.08;8.55;;;;;;;18.56;68.08;101897.75;5056829;28;20057;-68
2023/10/02 10:17:58;;;;;;;20.50;9.23;;;;;;;18.59;68.28;101893.72;5058612;27;20049;-68
2023/10/02 10:20:27;;;;;;;25.00;10.48;;;;;;;18.60;68.33;101884.47;5060829;28;20084;-68
2023/10/02 10:22:58;;;;;;;17.38;8.35;;;;;;;18.64;68.09;101885.66;5065348;27;20049;-68
2023/10/02 10:25:43;;;;;;;19.23;9.57;;;;;;;18.65;68.50;101882.66;5064997;27;20057;-68
2023/10/02 10:28:27;;;;;;;15.90;8.30;;;;;;;18.71;68.77;101887.13;5057239;27;20048;-67
2023/10/02 10:31:01;;;;;;;16.23;10.18;;;;;;;18.77;68.01;101883.38;5120656;27;20051;-66
2023/10/02 10:33:40;;;;;;;18.02;9.68;;;;;;;18.82;67.89;101885.38;4748078;27;9999812;-67
2023/10/02 10:36:37;;;;;;;16.48;8.40;;;;;;;18.84;67.68;101883.22;5076271;27;20045;-67
2023/10/02 10:39:31;;;;;;;16.35;9.63;;;;;;;18.77;67.95;101863.50;5071298;27;20041;-67
2023/10/02 10:42:02;;;;;;;18.13;8.93;;;;;;;18.84;67.88;101875.88;5081137;27;20045;-66
2023/10/02 10:44:38;;;;;;;19.88;9.23;;;;;;;18.91;68.59;101877.59;5048090;27;20379;-66
2023/10/02 10:47:06;;;;;;;19.15;9.57;;;;;;;18.92;68.35;101871.06;5084589;27;20071;-66
2023/10/02 10:49:52;;;;;;;17.70;9.38;;;;;;;18.93;68.81;101864.53;5068855;27;20467;-66
2023/10/02 10:52:35;;;;;;;15.23;8.68;;;;;;;18.98;69.18;101870.03;5082432;27;20045;-66
2023/10/02 10:55:13;;;;;;;19.05;10.25;;;;;;;18.97;69.28;101858.31;5106157;27;20054;-66
2023/10/02 10:57:51;;;;;;;21.42;9.98;;;;;;;19.02;69.66;101872.00;5079728;27;20045;-66
2023/10/02 11:00:30;;;;;;;25.10;10.27;;;;;;;19.08;70.04;101870.13;5098271;27;20041;-66
2023/10/02 11:03:04;;;;;;;18.08;9.25;;;;;;;19.11;69.77;101875.91;5072887;27;20051;-66
2023/10/02 11:05:33;;;;;;;18.08;9.07;;;;;;;19.09;69.67;101859.00;5081635;27;20063;-66
2023/10/02 11:08:25;;;;;;;17.67;9.23;;;;;;;19.16;69.98;101862.34;5077129;27;20048;-66
2023/10/02 11:11:11;;;;;;;22.02;10.32;;;;;;;19.17;69.95;101860.44;5057184;27;20049;-66
2023/10/02 11:13:53;;;;;;;18.85;8.90;;;;;;;19.16;70.06;101848.72;5061743;27;20491;-66
2023/10/02 11:16:30;;;;;;;19.65;9.38;;;;;;;19.22;70.14;101851.50;5072979;27;20053;-67
2023/10/02 11:19:13;;;;;;;16.77;8.80;;;;;;;19.24;70.10;101850.16;5049660;27;20072;-67
2023/10/02 11:22:01;;;;;;;19.42;9.00;;;;;;;19.23;70.22;101844.97;5051168;27;20109;-67
2023/10/02 11:24:29;;;;;;;19.48;9.30;;;;;;;19.30;70.09;101837.41;5061556;27;20132;-66
2023/10/02 11:27:07;;;;;;;16.20;9.13;;;;;;;19.36;69.93;101839.13;5065167;27;20049;-65
2023/10/02 11:29:40;;;;;;;17.77;9.32;;;;;;;19.36;69.95;101829.03;5047199;27;20067;-65
2023/10/02 11:32:22;;;;;;;19.48;9.10;;;;;;;19.42;69.93;101830.75;5065424;27;20048;-65
2023/10/02 11:34:51;;;;;;;19.73;9.75;;;;;;;19.46;70.27;101825.59;5090616;27;20046;-65
2023/10/02 11:37:23;;;;;;;19.30;9.05;;;;;;;19.48;70.40;101824.25;5055123;28;20053;-65
2023/10/02 11:39:55;;;;;;;20.40;9.55;;;;;;;19.50;70.58;101822.09;5055303;27;20111;-65
2023/10/02 11:42:24;;;;;;;21.15;10.15;;;;;;;19.53;70.53;101817.25;5055207;27;20044;-64
2023/10/02 11:44:53;;;;;;;20.08;10.70;;;;;;;19.55;70.63;101820.53;5052678;27;20049;-65
2023/10/02 11:47:24;;;;;;;18.48;9.50;;;;;;;19.56;70.49;101816.72;5068130;27;20049;-65
2023/10/02 11:49:51;;;;;;;18.35;10.10;;;;;;;19.58;70.51;101828.22;5086857;27;20104;-65
2023/10/02 11:52:19;;;;;;;17.55;8.90;;;;;;;19.58;70.40;101823.56;5092876;27;20043;-65
2023/10/02 11:54:47;;;;;;;21.00;9.93;;;;;;;19.57;70.48;101808.28;5048195;28;20180;-65
2023/10/02 11:57:15;;;;;;;15.63;8.25;;;;;;;19.63;70.29;101820.06;5065618;27;20062;-69
2023/10/02 11:59:47;;;;;;;17.70;10.40;;;;;;;19.64;70.21;101819.00;5063592;27;20044;-67
2023/10/02 12:02:17;;;;;;;16.25;8.15;;;;;;;19.68;70.12;101814.66;5065859;27;20146;-63
2023/10/02 12:04:47;;;;;;;17.20;9.25;;;;;;;19.71;70.25;101811.41;5068149;27;20070;-62
2023/10/02 12:07:16;;;;;;;14.38;8.77;;;;;;;19.72;70.30;101807.59;5066583;27;20048;-62
2023/10/02 12:09:47;;;;;;;18.35;9.25;;;;;;;19.71;70.37;101789.59;5087931;27;20068;-63
2023/10/02 12:12:16;;;;;;;15.65;8.40;;;;;;;19.79;70.31;101797.31;5055035;27;20096;-63
2023/10/02 12:14:44;;;;;;;19.05;9.77;;;;;;;19.78;70.31;101782.84;5058640;27;20084;-63